createdAt,value
2018-07-12T00:00:39.502Z,1007.04
2018-07-12T00:01:36.669Z,1007.04
2018-07-12T00:02:36.617Z,1007.05
2018-07-12T00:03:36.582Z,1007.09
2018-07-12T00:04:36.572Z,1007.08
2018-07-12T00:05:36.553Z,1007.08
2018-07-12T00:06:36.543Z,1007.10
2018-07-12T00:07:38.983Z,1007.07
2018-07-12T00:08:36.462Z,1007.09
2018-07-12T00:09:36.442Z,1007.11
2018-07-12T00:10:36.408Z,1007.06
2018-07-12T00:11:36.415Z,1007.08
2018-07-12T00:12:36.377Z,1007.01
2018-07-12T00:13:36.346Z,1006.96
2018-07-12T00:14:36.319Z,1006.93
2018-07-12T00:15:36.305Z,1006.95
2018-07-12T00:16:36.269Z,1006.91
2018-07-12T00:17:36.239Z,1006.88
2018-07-12T00:18:36.225Z,1006.89
2018-07-12T00:19:36.203Z,1006.85
2018-07-12T00:20:36.164Z,1006.87
2018-07-12T00:21:36.139Z,1006.89
2018-07-12T00:22:36.111Z,1006.89
2018-07-12T00:23:36.104Z,1006.87
2018-07-12T00:24:36.061Z,1006.92
2018-07-12T00:25:36.048Z,1006.94
2018-07-12T00:26:36.015Z,1006.95
2018-07-12T00:27:36.012Z,1006.98
2018-07-12T00:28:35.973Z,1007.00
2018-07-12T00:29:35.948Z,1007.02
2018-07-12T00:30:43.353Z,1007.00
2018-07-12T00:32:29.225Z,1006.98
2018-07-12T00:33:29.201Z,1006.99
2018-07-12T00:34:29.162Z,1006.97
2018-07-12T00:35:29.157Z,1006.99
2018-07-12T00:36:29.122Z,1006.95
2018-07-12T00:37:29.108Z,1006.93
2018-07-12T00:38:29.073Z,1006.93
2018-07-12T00:39:29.053Z,1006.92
2018-07-12T00:40:29.019Z,1006.93
2018-07-12T00:41:29.006Z,1006.93
2018-07-12T00:42:30.831Z,1006.93
2018-07-12T00:43:28.940Z,1006.93
2018-07-12T00:44:28.922Z,1006.91
2018-07-12T00:45:28.898Z,1006.91
2018-07-12T00:46:28.874Z,1006.90
2018-07-12T00:47:28.875Z,1006.90
2018-07-12T00:48:28.828Z,1006.90
2018-07-12T00:49:28.792Z,1006.90
2018-07-12T00:50:28.771Z,1006.90
2018-07-12T00:51:28.761Z,1006.87
2018-07-12T00:52:28.727Z,1006.86
2018-07-12T00:53:30.330Z,1006.81
2018-07-12T00:54:28.671Z,1006.81
2018-07-12T00:55:28.658Z,1006.77
2018-07-12T00:56:28.628Z,1006.73
2018-07-12T00:57:28.621Z,1006.70
2018-07-12T00:58:28.588Z,1006.70
2018-07-12T00:59:28.544Z,1006.74
2018-07-12T01:00:30.329Z,1006.70
2018-07-12T01:01:30.327Z,1006.65
2018-07-12T01:02:30.328Z,1006.66
2018-07-12T01:03:28.446Z,1006.62
2018-07-12T01:04:28.422Z,1006.56
2018-07-12T01:05:28.409Z,1006.57
2018-07-12T01:06:28.382Z,1006.55
2018-07-12T01:07:28.377Z,1006.52
2018-07-12T01:08:28.330Z,1006.51
2018-07-12T01:09:28.307Z,1006.56
2018-07-12T01:10:28.276Z,1006.54
2018-07-12T01:11:28.246Z,1006.55
2018-07-12T01:12:28.228Z,1006.54
2018-07-12T01:13:28.216Z,1006.52
2018-07-12T01:14:28.174Z,1006.56
2018-07-12T01:15:28.142Z,1006.51
2018-07-12T01:16:28.130Z,1006.51
2018-07-12T01:17:28.126Z,1006.49
2018-07-12T01:18:28.091Z,1006.50
2018-07-12T01:19:28.049Z,1006.49
2018-07-12T01:20:28.026Z,1006.52
2018-07-12T01:21:27.984Z,1006.51
2018-07-12T01:22:27.971Z,1006.49
2018-07-12T01:23:27.956Z,1006.48
2018-07-12T01:24:27.930Z,1006.47
2018-07-12T01:25:27.912Z,1006.45
2018-07-12T01:26:27.886Z,1006.45
2018-07-12T01:27:27.853Z,1006.44
2018-07-12T01:28:27.823Z,1006.45
2018-07-12T01:29:27.810Z,1006.42
2018-07-12T01:30:27.777Z,1006.46
2018-07-12T01:31:27.746Z,1006.45
2018-07-12T01:32:27.730Z,1006.43
2018-07-12T01:33:27.704Z,1006.43
2018-07-12T01:34:27.686Z,1006.39
2018-07-12T01:35:27.649Z,1006.39
2018-07-12T01:36:27.628Z,1006.41
2018-07-12T01:37:27.604Z,1006.40
2018-07-12T01:38:27.573Z,1006.40
2018-07-12T01:39:27.550Z,1006.42
2018-07-12T01:40:27.520Z,1006.33
2018-07-12T01:41:27.498Z,1006.31
2018-07-12T01:42:29.334Z,1006.28
2018-07-12T01:43:27.450Z,1006.35
2018-07-12T01:44:27.423Z,1006.32
2018-07-12T01:45:27.423Z,1006.29
2018-07-12T01:46:27.378Z,1006.25
2018-07-12T01:47:27.351Z,1006.29
2018-07-12T01:48:28.839Z,1006.27
2018-07-12T01:49:27.314Z,1006.27
2018-07-12T01:50:27.284Z,1006.30
2018-07-12T01:51:27.273Z,1006.31
2018-07-12T01:52:27.220Z,1006.35
2018-07-12T01:53:27.198Z,1006.34
2018-07-12T01:54:27.165Z,1006.37
2018-07-12T01:55:27.145Z,1006.41
2018-07-12T01:56:27.128Z,1006.41
2018-07-12T01:57:27.108Z,1006.46
2018-07-12T01:58:27.083Z,1006.43
2018-07-12T01:59:28.839Z,1006.40
2018-07-12T02:00:27.058Z,1006.40
2018-07-12T02:01:27.007Z,1006.36
2018-07-12T02:02:26.994Z,1006.38
2018-07-12T02:03:26.963Z,1006.34
2018-07-12T02:04:26.920Z,1006.32
2018-07-12T02:05:26.901Z,1006.34
2018-07-12T02:06:28.853Z,1006.33
2018-07-12T02:07:27.846Z,1006.30
2018-07-12T02:08:26.825Z,1006.28
2018-07-12T02:09:26.799Z,1006.31
2018-07-12T02:10:26.775Z,1006.26
2018-07-12T02:11:26.761Z,1006.23
2018-07-12T02:12:26.725Z,1006.22
2018-07-12T02:13:26.718Z,1006.17
2018-07-12T02:14:26.686Z,1006.13
2018-07-12T02:15:28.343Z,1006.15
2018-07-12T02:16:26.626Z,1006.15
2018-07-12T02:17:26.611Z,1006.14
2018-07-12T02:18:26.587Z,1006.10
2018-07-12T02:19:26.564Z,1006.08
2018-07-12T02:20:26.531Z,1006.03
2018-07-12T02:21:26.506Z,1006.05
2018-07-12T02:22:26.480Z,1006.08
2018-07-12T02:23:26.449Z,1006.10
2018-07-12T02:24:26.417Z,1006.10
2018-07-12T02:25:26.409Z,1006.09
2018-07-12T02:26:26.375Z,1006.11
2018-07-12T02:27:26.343Z,1006.13
2018-07-12T02:28:26.346Z,1006.11
2018-07-12T02:29:26.297Z,1006.11
2018-07-12T02:30:26.280Z,1006.13
2018-07-12T02:31:26.246Z,1006.16
2018-07-12T02:32:26.228Z,1006.12
2018-07-12T02:33:26.189Z,1006.12
2018-07-12T02:34:26.175Z,1006.14
2018-07-12T02:35:26.147Z,1006.15
2018-07-12T02:36:26.128Z,1006.16
2018-07-12T02:37:26.110Z,1006.16
2018-07-12T02:38:26.086Z,1006.15
2018-07-12T02:39:26.050Z,1006.15
2018-07-12T02:40:26.024Z,1006.15
2018-07-12T02:41:25.993Z,1006.17
2018-07-12T02:42:25.972Z,1006.21
2018-07-12T02:43:25.951Z,1006.16
2018-07-12T02:44:27.861Z,1006.16
2018-07-12T02:45:25.896Z,1006.15
2018-07-12T02:46:25.884Z,1006.14
2018-07-12T02:47:27.350Z,1006.16
2018-07-12T02:48:27.371Z,1006.13
2018-07-12T02:49:25.802Z,1006.14
2018-07-12T02:50:25.783Z,1006.21
2018-07-12T02:51:25.741Z,1006.21
2018-07-12T02:52:25.734Z,1006.19
2018-07-12T02:53:25.717Z,1006.19
2018-07-12T02:54:25.670Z,1006.21
2018-07-12T02:55:25.687Z,1006.17
2018-07-12T02:56:25.624Z,1006.19
2018-07-12T02:57:25.597Z,1006.20
2018-07-12T02:58:25.577Z,1006.23
2018-07-12T02:59:25.546Z,1006.18
2018-07-12T03:00:25.527Z,1006.22
2018-07-12T03:01:25.502Z,1006.19
2018-07-12T03:02:25.473Z,1006.25
2018-07-12T03:03:27.354Z,1006.20
2018-07-12T03:04:25.463Z,1006.20
2018-07-12T03:05:25.414Z,1006.17
2018-07-12T03:06:25.380Z,1006.19
2018-07-12T03:07:25.376Z,1006.12
2018-07-12T03:08:25.345Z,1006.11
2018-07-12T03:09:25.307Z,1006.13
2018-07-12T03:10:25.284Z,1006.11
2018-07-12T03:11:25.245Z,1006.14
2018-07-12T03:12:25.228Z,1006.16
2018-07-12T03:13:25.226Z,1006.15
2018-07-12T03:14:25.179Z,1006.10
2018-07-12T03:15:25.157Z,1006.10
2018-07-12T03:16:25.161Z,1006.14
2018-07-12T03:17:25.110Z,1006.15
2018-07-12T03:18:25.079Z,1006.17
2018-07-12T03:19:25.062Z,1006.20
2018-07-12T03:20:25.037Z,1006.20
2018-07-12T03:21:25.008Z,1006.18
2018-07-12T03:22:24.982Z,1006.15
2018-07-12T03:23:24.979Z,1006.12
2018-07-12T03:24:24.933Z,1006.11
2018-07-12T03:25:24.918Z,1006.13
2018-07-12T03:26:24.874Z,1006.13
2018-07-12T03:27:24.857Z,1006.11
2018-07-12T03:28:24.838Z,1006.07
2018-07-12T03:29:24.813Z,1006.08
2018-07-12T03:30:24.797Z,1006.06
2018-07-12T03:31:26.370Z,1006.02
2018-07-12T03:32:24.749Z,1005.97
2018-07-12T03:33:24.714Z,1006.06
2018-07-12T03:34:24.702Z,1006.04
2018-07-12T03:35:24.666Z,1006.06
2018-07-12T03:36:24.645Z,1006.06
2018-07-12T03:37:24.613Z,1006.09
2018-07-12T03:38:24.600Z,1006.07
2018-07-12T03:39:24.563Z,1006.02
2018-07-12T03:40:24.550Z,1006.05
2018-07-12T03:41:24.514Z,1006.05
2018-07-12T03:42:24.500Z,1006.04
2018-07-12T03:43:24.464Z,1006.05
2018-07-12T03:44:26.371Z,1006.06
2018-07-12T03:45:24.428Z,1006.02
2018-07-12T03:46:24.391Z,1006.06
2018-07-12T03:47:24.377Z,1006.04
2018-07-12T03:48:25.900Z,1006.03
2018-07-12T03:49:25.869Z,1006.01
2018-07-12T03:50:24.292Z,1006.01
2018-07-12T03:51:24.286Z,1006.00
2018-07-12T03:52:24.250Z,1006.01
2018-07-12T03:53:24.216Z,1006.01
2018-07-12T03:54:25.869Z,1005.97
2018-07-12T03:55:24.179Z,1005.97
2018-07-12T03:56:24.147Z,1005.96
2018-07-12T03:57:24.116Z,1005.98
2018-07-12T03:58:24.112Z,1005.95
2018-07-12T03:59:25.879Z,1005.95
2018-07-12T04:00:24.050Z,1005.95
2018-07-12T04:01:24.021Z,1005.96
2018-07-12T04:02:24.004Z,1005.99
2018-07-12T04:03:23.985Z,1005.95
2018-07-12T04:04:23.958Z,1006.03
2018-07-12T04:05:23.942Z,1005.97
2018-07-12T04:06:23.909Z,1006.00
2018-07-12T04:07:23.893Z,1005.98
2018-07-12T04:08:23.870Z,1005.96
2018-07-12T04:09:23.831Z,1006.03
2018-07-12T04:10:23.810Z,1006.01
2018-07-12T04:11:23.772Z,1006.02
2018-07-12T04:12:23.752Z,1006.05
2018-07-12T04:13:23.729Z,1006.06
2018-07-12T04:14:23.707Z,1006.06
2018-07-12T04:15:23.687Z,1006.05
2018-07-12T04:16:23.649Z,1006.06
2018-07-12T04:17:23.653Z,1006.04
2018-07-12T04:18:23.609Z,1006.06
2018-07-12T04:19:23.582Z,1006.05
2018-07-12T04:20:25.391Z,1006.01
2018-07-12T04:21:23.555Z,1005.99
2018-07-12T04:22:23.504Z,1006.07
2018-07-12T04:23:23.493Z,1006.06
2018-07-12T04:24:23.455Z,1006.06
2018-07-12T04:25:23.460Z,1006.02
2018-07-12T04:26:23.414Z,1006.05
2018-07-12T04:27:23.400Z,1006.05
2018-07-12T04:28:23.366Z,1006.07
2018-07-12T04:29:23.336Z,1006.06
2018-07-12T04:30:23.331Z,1006.08
2018-07-12T04:31:23.292Z,1006.09
2018-07-12T04:32:23.271Z,1006.04
2018-07-12T04:33:23.259Z,1006.04
2018-07-12T04:34:23.264Z,1006.04
2018-07-12T04:35:23.191Z,1006.04
2018-07-12T04:36:23.174Z,1006.03
2018-07-12T04:37:23.144Z,1006.05
2018-07-12T04:38:23.118Z,1006.05
2018-07-12T04:39:23.100Z,1006.04
2018-07-12T04:40:23.085Z,1006.09
2018-07-12T04:41:23.048Z,1006.06
2018-07-12T04:42:23.026Z,1006.02
2018-07-12T04:43:24.877Z,1006.02
2018-07-12T04:44:24.877Z,1006.03
2018-07-12T04:45:22.953Z,1006.01
2018-07-12T04:46:22.944Z,1005.97
2018-07-12T04:47:22.921Z,1005.98
2018-07-12T04:48:24.375Z,1005.97
2018-07-12T04:49:22.877Z,1006.00
2018-07-12T04:50:22.846Z,1005.95
2018-07-12T04:51:22.834Z,1006.00
2018-07-12T04:52:24.380Z,1006.00
2018-07-12T04:53:22.771Z,1005.98
2018-07-12T04:54:22.732Z,1006.00
2018-07-12T04:55:22.718Z,1006.05
2018-07-12T04:56:22.687Z,1006.02
2018-07-12T04:57:22.670Z,1006.06
2018-07-12T04:58:22.721Z,1006.02
2018-07-12T04:59:22.608Z,1006.06
2018-07-12T05:00:22.606Z,1006.05
2018-07-12T05:01:30.028Z,1006.00
2018-07-12T05:03:15.686Z,1006.04
2018-07-12T05:04:15.673Z,1006.00
2018-07-12T05:06:09.276Z,1006.01
2018-07-12T05:07:09.232Z,1006.01
2018-07-12T05:09:02.405Z,1006.02
2018-07-12T05:10:02.338Z,1006.03
2018-07-12T05:11:03.198Z,1006.03
2018-07-12T05:12:02.311Z,1006.05
2018-07-12T05:13:02.269Z,1006.06
2018-07-12T05:14:02.252Z,1006.10
2018-07-12T05:15:03.166Z,1006.09
2018-07-12T05:16:02.203Z,1006.06
2018-07-12T05:17:02.230Z,1006.10
2018-07-12T05:18:02.160Z,1006.11
2018-07-12T05:19:02.163Z,1006.09
2018-07-12T05:21:02.100Z,1006.08
2018-07-12T05:22:02.150Z,1006.14
2018-07-12T05:23:02.059Z,1006.08
2018-07-12T05:24:02.019Z,1006.11
2018-07-12T05:27:01.925Z,1006.05
2018-07-12T05:28:01.955Z,1006.11
2018-07-12T05:29:01.956Z,1006.08
2018-07-12T05:30:01.881Z,1006.07
2018-07-12T05:31:01.961Z,1006.10
2018-07-12T05:32:01.852Z,1006.10
2018-07-12T05:33:01.820Z,1006.09
2018-07-12T05:34:01.833Z,1006.12
2018-07-12T05:35:01.812Z,1006.13
2018-07-12T05:36:02.722Z,1006.16
2018-07-12T05:37:01.749Z,1006.14
2018-07-12T05:38:02.686Z,1006.15
2018-07-12T05:39:01.685Z,1006.12
2018-07-12T05:40:01.685Z,1006.13
2018-07-12T05:41:01.610Z,1006.12
2018-07-12T05:42:01.641Z,1006.12
2018-07-12T05:43:01.599Z,1006.11
2018-07-12T05:44:01.534Z,1006.13
2018-07-12T05:45:01.510Z,1006.14
2018-07-12T05:46:05.198Z,1006.10
2018-07-12T05:47:01.468Z,1006.14
2018-07-12T05:48:01.488Z,1006.19
2018-07-12T05:49:01.423Z,1006.11
2018-07-12T05:50:01.461Z,1006.13
2018-07-12T05:51:01.406Z,1006.18
2018-07-12T05:52:01.324Z,1006.18
2018-07-12T05:53:01.320Z,1006.19
2018-07-12T05:54:01.308Z,1006.20
2018-07-12T05:55:01.291Z,1006.18
2018-07-12T05:56:01.284Z,1006.18
2018-07-12T05:57:01.251Z,1006.18
2018-07-12T05:58:01.243Z,1006.27
2018-07-12T05:59:01.208Z,1006.22
2018-07-12T06:00:01.177Z,1006.18
2018-07-12T06:02:01.168Z,1006.15
2018-07-12T06:03:01.142Z,1006.23
2018-07-12T06:04:01.043Z,1006.22
2018-07-12T06:05:01.066Z,1006.23
2018-07-12T06:06:01.078Z,1006.16
2018-07-12T06:07:01.091Z,1006.15
2018-07-12T06:08:01.033Z,1006.22
2018-07-12T06:09:00.970Z,1006.19
2018-07-12T06:10:01.717Z,1006.16
2018-07-12T06:11:00.920Z,1006.21
2018-07-12T06:12:00.914Z,1006.20
2018-07-12T06:13:00.918Z,1006.22
2018-07-12T06:14:00.854Z,1006.23
2018-07-12T06:15:00.890Z,1006.20
2018-07-12T06:16:00.826Z,1006.22
2018-07-12T06:17:00.826Z,1006.25
2018-07-12T06:18:00.756Z,1006.25
2018-07-12T06:19:00.838Z,1006.26
2018-07-12T06:20:00.692Z,1006.28
2018-07-12T06:21:00.675Z,1006.27
2018-07-12T06:22:00.668Z,1006.31
2018-07-12T06:23:00.612Z,1006.32
2018-07-12T06:24:00.605Z,1006.29
2018-07-12T06:25:00.557Z,1006.29
2018-07-12T06:26:00.544Z,1006.30
2018-07-12T06:27:00.550Z,1006.30
2018-07-12T06:28:00.499Z,1006.27
2018-07-12T06:29:00.465Z,1006.26
2018-07-12T06:30:00.482Z,1006.29
2018-07-12T06:31:00.461Z,1006.30
2018-07-12T06:32:00.460Z,1006.29
2018-07-12T06:33:00.393Z,1006.33
2018-07-12T06:34:03.178Z,1006.33
2018-07-12T06:36:00.316Z,1006.29
2018-07-12T06:37:00.309Z,1006.32
2018-07-12T06:38:00.256Z,1006.30
2018-07-12T06:39:00.254Z,1006.34
2018-07-12T06:40:00.212Z,1006.34
2018-07-12T06:41:00.187Z,1006.33
2018-07-12T06:42:00.153Z,1006.32
2018-07-12T06:43:00.152Z,1006.30
2018-07-12T06:44:00.137Z,1006.35
2018-07-12T06:45:00.111Z,1006.35
2018-07-12T06:46:00.669Z,1006.38
2018-07-12T06:47:00.071Z,1006.36
2018-07-12T06:48:00.037Z,1006.36
2018-07-12T06:49:00.042Z,1006.34
2018-07-12T06:50:00.017Z,1006.33
2018-07-12T06:51:59.935Z,1006.36
2018-07-12T06:52:59.911Z,1006.34
2018-07-12T06:53:59.875Z,1006.31
2018-07-12T06:54:59.862Z,1006.32
2018-07-12T06:55:59.818Z,1006.34
2018-07-12T06:56:59.798Z,1006.35
2018-07-12T06:57:59.794Z,1006.33
2018-07-12T06:58:59.795Z,1006.34
2018-07-12T06:59:59.728Z,1006.30
2018-07-12T07:00:59.706Z,1006.32
2018-07-12T07:01:59.690Z,1006.32
2018-07-12T07:02:59.683Z,1006.35
2018-07-12T07:03:59.654Z,1006.33
2018-07-12T07:04:59.612Z,1006.33
2018-07-12T07:05:59.672Z,1006.28
2018-07-12T07:06:59.605Z,1006.29
2018-07-12T07:07:59.579Z,1006.29
2018-07-12T07:08:59.543Z,1006.33
2018-07-12T07:09:59.511Z,1006.34
2018-07-12T07:10:59.480Z,1006.33
2018-07-12T07:11:59.479Z,1006.30
2018-07-12T07:12:59.443Z,1006.28
2018-07-12T07:13:59.448Z,1006.35
2018-07-12T07:14:59.398Z,1006.32
2018-07-12T07:15:59.370Z,1006.37
2018-07-12T07:16:59.354Z,1006.35
2018-07-12T07:17:59.368Z,1006.37
2018-07-12T07:18:59.332Z,1006.38
2018-07-12T07:19:59.301Z,1006.31
2018-07-12T07:20:59.333Z,1006.35
2018-07-12T07:21:59.268Z,1006.43
2018-07-12T07:22:59.266Z,1006.41
2018-07-12T07:23:59.230Z,1006.39
2018-07-12T07:24:59.187Z,1006.40
2018-07-12T07:25:59.198Z,1006.36
2018-07-12T07:26:59.707Z,1006.39
2018-07-12T07:27:59.151Z,1006.40
2018-07-12T07:28:59.091Z,1006.37
2018-07-12T07:29:59.700Z,1006.40
2018-07-12T07:30:59.081Z,1006.43
2018-07-12T07:31:59.689Z,1006.43
2018-07-12T07:32:59.017Z,1006.44
2018-07-12T07:33:59.023Z,1006.44
2018-07-12T07:34:59.016Z,1006.48
2018-07-12T07:35:58.977Z,1006.42
2018-07-12T07:36:58.936Z,1006.40
2018-07-12T07:37:58.909Z,1006.43
2018-07-12T07:38:58.874Z,1006.41
2018-07-12T07:39:58.877Z,1006.49
2018-07-12T07:40:58.868Z,1006.46
2018-07-12T07:41:58.849Z,1006.47
2018-07-12T07:42:59.760Z,1006.47
2018-07-12T07:43:58.767Z,1006.45
2018-07-12T07:44:58.739Z,1006.44
2018-07-12T07:45:58.763Z,1006.43
2018-07-12T07:46:58.726Z,1006.45
2018-07-12T07:47:58.691Z,1006.41
2018-07-12T07:48:58.669Z,1006.44
2018-07-12T07:49:58.654Z,1006.51
2018-07-12T07:50:58.659Z,1006.44
2018-07-12T07:51:58.593Z,1006.50
2018-07-12T07:52:58.577Z,1006.52
2018-07-12T07:53:58.553Z,1006.46
2018-07-12T07:54:58.532Z,1006.53
2018-07-12T07:55:58.509Z,1006.44
2018-07-12T07:56:58.510Z,1006.47
2018-07-12T07:57:58.468Z,1006.58
2018-07-12T07:58:58.470Z,1006.42
2018-07-12T07:59:58.482Z,1006.53
2018-07-12T08:00:59.237Z,1006.48
2018-07-12T08:01:58.410Z,1006.47
2018-07-12T08:02:58.372Z,1006.40
2018-07-12T08:03:58.379Z,1006.44
2018-07-12T08:04:58.350Z,1006.43
2018-07-12T08:05:58.308Z,1006.38
2018-07-12T08:06:58.330Z,1006.40
2018-07-12T08:07:58.346Z,1006.45
2018-07-12T08:08:58.267Z,1006.46
2018-07-12T08:09:59.230Z,1006.47
2018-07-12T08:10:58.228Z,1006.45
2018-07-12T08:11:58.229Z,1006.39
2018-07-12T08:12:58.165Z,1006.49
2018-07-12T08:13:58.195Z,1006.42
2018-07-12T08:14:58.130Z,1006.45
2018-07-12T08:15:58.123Z,1006.41
2018-07-12T08:16:58.139Z,1006.39
2018-07-12T08:17:58.083Z,1006.37
2018-07-12T08:18:58.077Z,1006.40
2018-07-12T08:19:58.054Z,1006.43
2018-07-12T08:21:58.012Z,1006.44
2018-07-12T08:22:57.976Z,1006.44
2018-07-12T08:23:58.761Z,1006.47
2018-07-12T08:24:57.944Z,1006.39
2018-07-12T08:25:57.950Z,1006.48
2018-07-12T08:26:57.911Z,1006.46
2018-07-12T08:27:57.904Z,1006.44
2018-07-12T08:28:57.867Z,1006.38
2018-07-12T08:29:57.915Z,1006.41
2018-07-12T08:30:57.829Z,1006.38
2018-07-12T08:31:57.808Z,1006.43
2018-07-12T08:32:57.801Z,1006.49
2018-07-12T08:33:57.813Z,1006.43
2018-07-12T08:34:57.767Z,1006.37
2018-07-12T08:35:57.722Z,1006.43
2018-07-12T08:36:57.779Z,1006.47
2018-07-12T08:37:57.719Z,1006.44
2018-07-12T08:38:57.694Z,1006.36
2018-07-12T08:39:57.621Z,1006.47
2018-07-12T08:40:57.619Z,1006.45
2018-07-12T08:41:57.593Z,1006.51
2018-07-12T08:42:57.623Z,1006.48
2018-07-12T08:43:59.247Z,1006.44
2018-07-12T08:44:57.530Z,1006.47
2018-07-12T08:45:57.538Z,1006.47
2018-07-12T08:46:57.487Z,1006.49
2018-07-12T08:47:57.479Z,1006.43
2018-07-12T08:48:57.446Z,1006.48
2018-07-12T08:50:57.412Z,1006.43
2018-07-12T08:51:58.198Z,1006.41
2018-07-12T08:52:57.479Z,1006.42
2018-07-12T08:53:57.332Z,1006.41
2018-07-12T08:54:57.298Z,1006.41
2018-07-12T08:55:57.276Z,1006.43
2018-07-12T08:56:57.343Z,1006.37
2018-07-12T08:57:57.279Z,1006.44
2018-07-12T08:58:57.239Z,1006.40
2018-07-12T08:59:57.198Z,1006.41
2018-07-12T09:00:59.690Z,1006.37
2018-07-12T09:01:57.163Z,1006.44
2018-07-12T09:02:57.158Z,1006.42
2018-07-12T09:03:57.154Z,1006.38
2018-07-12T09:04:57.118Z,1006.45
2018-07-12T09:05:57.082Z,1006.48
2018-07-12T09:06:57.091Z,1006.46
2018-07-12T09:07:57.055Z,1006.48
2018-07-12T09:08:57.724Z,1006.46
2018-07-12T09:09:57.025Z,1006.43
2018-07-12T09:10:58.724Z,1006.44
2018-07-12T09:11:57.320Z,1006.41
2018-07-12T09:12:58.807Z,1006.42
2018-07-12T09:13:56.903Z,1006.40
2018-07-12T09:14:56.907Z,1006.39
2018-07-12T09:15:56.881Z,1006.40
2018-07-12T09:16:56.855Z,1006.37
2018-07-12T09:17:56.834Z,1006.42
2018-07-12T09:18:56.810Z,1006.40
2018-07-12T09:19:56.789Z,1006.44
2018-07-12T09:20:56.792Z,1006.43
2018-07-12T09:21:56.734Z,1006.44
2018-07-12T09:22:56.757Z,1006.46
2018-07-12T09:23:56.702Z,1006.44
2018-07-12T09:24:56.687Z,1006.49
2018-07-12T09:25:56.682Z,1006.44
2018-07-12T09:26:57.194Z,1006.55
2018-07-12T09:27:56.622Z,1006.39
2018-07-12T09:28:56.673Z,1006.36
2018-07-12T09:29:56.603Z,1006.44
2018-07-12T09:30:56.626Z,1006.46
2018-07-12T09:31:56.541Z,1006.45
2018-07-12T09:32:56.550Z,1006.46
2018-07-12T09:33:56.506Z,1006.53
2018-07-12T09:34:56.555Z,1006.46
2018-07-12T09:35:56.546Z,1006.45
2018-07-12T09:36:56.531Z,1006.52
2018-07-12T09:37:56.479Z,1006.52
2018-07-12T09:38:56.410Z,1006.50
2018-07-12T09:39:56.447Z,1006.51
2018-07-12T09:40:56.387Z,1006.45
2018-07-12T09:41:56.366Z,1006.47
2018-07-12T09:42:56.390Z,1006.51
2018-07-12T09:43:56.345Z,1006.53
2018-07-12T09:44:56.314Z,1006.53
2018-07-12T09:45:56.293Z,1006.53
2018-07-12T09:46:56.316Z,1006.57
2018-07-12T09:47:56.246Z,1006.56
2018-07-12T09:48:56.267Z,1006.56
2018-07-12T09:49:56.192Z,1006.55
2018-07-12T09:50:56.199Z,1006.57
2018-07-12T09:51:56.180Z,1006.61
2018-07-12T09:52:56.149Z,1006.52
2018-07-12T09:53:56.119Z,1006.54
2018-07-12T09:54:56.094Z,1006.64
2018-07-12T09:55:56.111Z,1006.49
2018-07-12T09:56:56.105Z,1006.52
2018-07-12T09:57:56.078Z,1006.47
2018-07-12T09:58:56.038Z,1006.53
2018-07-12T09:59:56.023Z,1006.44
2018-07-12T10:00:55.986Z,1006.50
2018-07-12T10:01:55.944Z,1006.58
2018-07-12T10:02:55.935Z,1006.43
2018-07-12T10:03:55.910Z,1006.52
2018-07-12T10:04:55.906Z,1006.52
2018-07-12T10:05:55.895Z,1006.50
2018-07-12T10:06:55.867Z,1006.53
2018-07-12T10:07:55.838Z,1006.53
2018-07-12T10:08:55.823Z,1006.55
2018-07-12T10:09:55.853Z,1006.56
2018-07-12T10:10:57.711Z,1006.61
2018-07-12T10:11:55.753Z,1006.59
2018-07-12T10:12:55.729Z,1006.50
2018-07-12T10:13:55.713Z,1006.54
2018-07-12T10:14:55.689Z,1006.54
2018-07-12T10:15:55.711Z,1006.56
2018-07-12T10:16:55.651Z,1006.54
2018-07-12T10:17:55.649Z,1006.53
2018-07-12T10:18:55.648Z,1006.51
2018-07-12T10:21:34.913Z,1006.55
2018-07-12T10:22:35.652Z,1006.55
2018-07-12T10:23:35.022Z,1006.61
2018-07-12T10:24:35.000Z,1006.54
2018-07-12T10:25:34.897Z,1006.54
2018-07-12T10:26:34.948Z,1006.53
2018-07-12T10:27:34.772Z,1006.58
2018-07-12T10:28:34.775Z,1006.54
2018-07-12T10:29:34.837Z,1006.49
2018-07-12T10:30:34.689Z,1006.48
2018-07-12T10:31:34.641Z,1006.48
2018-07-12T10:32:34.701Z,1006.53
2018-07-12T10:33:34.727Z,1006.51
2018-07-12T10:34:34.786Z,1006.52
2018-07-12T10:35:34.718Z,1006.53
2018-07-12T10:36:34.668Z,1006.60
2018-07-12T10:37:34.545Z,1006.57
2018-07-12T10:38:34.641Z,1006.53
2018-07-12T10:39:34.573Z,1006.48
2018-07-12T10:40:34.642Z,1006.54
2018-07-12T10:41:34.588Z,1006.57
2018-07-12T10:42:34.632Z,1006.59
2018-07-12T10:43:34.460Z,1006.57
2018-07-12T10:44:34.469Z,1006.57
2018-07-12T10:45:34.512Z,1006.52
2018-07-12T10:46:34.461Z,1006.53
2018-07-12T10:47:34.423Z,1006.53
2018-07-12T10:49:34.428Z,1006.52
2018-07-12T10:50:34.428Z,1006.55
2018-07-12T10:51:34.279Z,1006.59
2018-07-12T10:52:34.442Z,1006.64
2018-07-12T10:53:34.292Z,1006.58
2018-07-12T10:54:34.185Z,1006.57
2018-07-12T10:55:34.234Z,1006.58
2018-07-12T10:56:35.193Z,1006.55
2018-07-12T10:57:34.175Z,1006.60
2018-07-12T10:58:34.210Z,1006.60
2018-07-12T10:59:34.065Z,1006.65
2018-07-12T11:00:34.150Z,1006.64
2018-07-12T11:01:34.050Z,1006.60
2018-07-12T11:02:34.064Z,1006.55
2018-07-12T11:03:34.082Z,1006.63
2018-07-12T11:04:34.163Z,1006.61
2018-07-12T11:05:34.010Z,1006.66
2018-07-12T11:06:34.043Z,1006.60
2018-07-12T11:07:34.017Z,1006.63
2018-07-12T11:08:34.110Z,1006.62
2018-07-12T11:09:34.023Z,1006.69
2018-07-12T11:10:34.222Z,1006.64
2018-07-12T11:11:34.027Z,1006.56
2018-07-12T11:12:33.978Z,1006.59
2018-07-12T11:13:33.891Z,1006.59
2018-07-12T11:14:34.166Z,1006.68
2018-07-12T11:15:33.998Z,1006.61
2018-07-12T11:16:34.122Z,1006.60
2018-07-12T11:17:33.847Z,1006.64
2018-07-12T11:18:33.964Z,1006.67
2018-07-12T11:19:33.672Z,1006.63
2018-07-12T11:20:33.657Z,1006.53
2018-07-12T11:21:33.623Z,1006.62
2018-07-12T11:22:33.600Z,1006.37
2018-07-12T11:23:33.591Z,1006.53
2018-07-12T11:24:33.555Z,1006.60
2018-07-12T11:25:33.530Z,1006.56
2018-07-12T11:26:33.519Z,1006.56
2018-07-12T11:27:33.493Z,1006.58
2018-07-12T11:28:33.497Z,1006.54
2018-07-12T11:29:33.479Z,1006.58
2018-07-12T11:30:33.462Z,1006.60
2018-07-12T11:31:33.412Z,1006.57
2018-07-12T11:32:33.407Z,1006.58
2018-07-12T11:33:33.383Z,1006.56
2018-07-12T11:34:33.364Z,1006.59
2018-07-12T11:35:33.345Z,1006.58
2018-07-12T11:36:33.335Z,1006.61
2018-07-12T11:37:33.314Z,1006.61
2018-07-12T11:38:33.272Z,1006.58
2018-07-12T11:39:33.303Z,1006.58
2018-07-12T11:40:33.246Z,1006.65
2018-07-12T11:41:33.235Z,1006.59
2018-07-12T11:42:33.196Z,1006.65
2018-07-12T11:43:33.179Z,1006.68
2018-07-12T11:45:33.144Z,1006.70
2018-07-12T11:46:33.138Z,1006.61
2018-07-12T11:47:33.099Z,1006.61
2018-07-12T11:48:33.079Z,1006.63
2018-07-12T11:49:33.064Z,1006.66
2018-07-12T11:50:33.067Z,1006.74
2018-07-12T11:51:33.039Z,1006.73
2018-07-12T11:52:33.078Z,1006.74
2018-07-12T11:53:33.022Z,1006.66
2018-07-12T11:54:33.016Z,1006.67
2018-07-12T11:55:32.948Z,1006.72
2018-07-12T11:56:32.939Z,1006.63
2018-07-12T11:57:32.925Z,1006.63
2018-07-12T11:58:32.895Z,1006.66
2018-07-12T11:59:32.894Z,1006.66
2018-07-12T12:00:32.846Z,1006.60
2018-07-12T12:01:32.917Z,1006.64
2018-07-12T12:02:32.843Z,1006.64
2018-07-12T12:03:32.844Z,1006.60
2018-07-12T12:04:32.792Z,1006.59
2018-07-12T12:05:32.800Z,1006.77
2018-07-12T12:06:32.779Z,1006.76
2018-07-12T12:07:33.557Z,1006.75
2018-07-12T12:08:32.696Z,1006.64
2018-07-12T12:09:32.723Z,1006.70
2018-07-12T12:10:32.734Z,1006.72
2018-07-12T12:11:32.671Z,1006.73
2018-07-12T12:12:32.625Z,1006.73
2018-07-12T12:13:32.735Z,1006.74
2018-07-12T12:14:32.657Z,1006.71
2018-07-12T12:15:32.564Z,1006.71
2018-07-12T12:16:32.536Z,1006.66
2018-07-12T12:17:32.546Z,1006.75
2018-07-12T12:18:32.567Z,1006.67
2018-07-12T12:19:32.505Z,1006.67
2018-07-12T12:21:32.481Z,1006.75